Аэропорт: Курск-Восточный . Курск

ICAO: UUOK

METAR:
2020-10-23 11:00:00
UUOK 231100Z 23004MPS CAVOK 14/09 Q1014 R30/CLRD65 NOSIG RMK QFE742/0989
METAR:
Информация по данной станции не доступна